sensor_id;sensor_type;location;lat;lon;timestamp;pressure;altitude;pressure_sealevel;temperature;humidity
49729;BME280;66333;49.798;10.968;2023-02-16T00:01:14;99211.84;;;7.11;60.72
49729;BME280;66333;49.798;10.968;2023-02-16T00:03:43;99213.69;;;7.09;60.88
49729;BME280;66333;49.798;10.968;2023-02-16T00:06:10;99214.63;;;7.08;60.96
49729;BME280;66333;49.798;10.968;2023-02-16T00:08:41;99221.63;;;7.07;61.16
49729;BME280;66333;49.798;10.968;2023-02-16T00:11:14;99209.44;;;7.08;61.13
49729;BME280;66333;49.798;10.968;2023-02-16T00:14:00;99212.25;;;7.05;61.03
49729;BME280;66333;49.798;10.968;2023-02-16T00:16:28;99208.72;;;7.06;60.92
49729;BME280;66333;49.798;10.968;2023-02-16T00:18:57;99203.50;;;7.06;61.08
49729;BME280;66333;49.798;10.968;2023-02-16T00:21:23;99208.72;;;7.06;61.05
49729;BME280;66333;49.798;10.968;2023-02-16T00:23:50;99210.59;;;7.04;60.98
49729;BME280;66333;49.798;10.968;2023-02-16T00:26:19;99203.72;;;7.03;60.92
49729;BME280;66333;49.798;10.968;2023-02-16T00:28:49;99207.28;;;7.02;61.01
49729;BME280;66333;49.798;10.968;2023-02-16T00:31:26;99210.81;;;7.01;61.05
49729;BME280;66333;49.798;10.968;2023-02-16T00:33:53;99205.59;;;7.01;60.92
49729;BME280;66333;49.798;10.968;2023-02-16T00:36:20;99213.50;;;6.99;61.01
49729;BME280;66333;49.798;10.968;2023-02-16T00:38:48;99205.81;;;6.98;60.96
49729;BME280;66333;49.798;10.968;2023-02-16T00:41:17;99211.00;;;6.98;61.00
49729;BME280;66333;49.798;10.968;2023-02-16T00:44:03;99217.16;;;6.97;61.13
49729;BME280;66333;49.798;10.968;2023-02-16T00:46:31;99207.69;;;6.96;60.99
49729;BME280;66333;49.798;10.968;2023-02-16T00:48:59;99211.94;;;6.97;60.96
49729;BME280;66333;49.798;10.968;2023-02-16T00:51:28;99206.03;;;6.95;61.04
49729;BME280;66333;49.798;10.968;2023-02-16T00:53:54;99207.69;;;6.96;61.17
49729;BME280;66333;49.798;10.968;2023-02-16T00:56:21;99217.38;;;6.94;61.23
49729;BME280;66333;49.798;10.968;2023-02-16T00:58:49;99214.78;;;6.94;61.04
49729;BME280;66333;49.798;10.968;2023-02-16T01:01:19;99209.75;;;6.91;61.16
49729;BME280;66333;49.798;10.968;2023-02-16T01:03:50;99209.75;;;6.91;60.96
49729;BME280;66333;49.798;10.968;2023-02-16T01:06:18;99208.09;;;6.90;61.18
49729;BME280;66333;49.798;10.968;2023-02-16T01:09:11;99202.88;;;6.90;61.01
49729;BME280;66333;49.798;10.968;2023-02-16T01:11:56;99190.81;;;6.89;61.15
49729;BME280;66333;49.798;10.968;2023-02-16T01:14:23;99201.22;;;6.89;61.17
49729;BME280;66333;49.798;10.968;2023-02-16T01:16:49;99196.97;;;6.88;61.13
49729;BME280;66333;49.798;10.968;2023-02-16T01:19:30;99203.13;;;6.87;60.92
49729;BME280;66333;49.798;10.968;2023-02-16T01:22:00;99203.13;;;6.87;61.21
49729;BME280;66333;49.798;10.968;2023-02-16T01:24:30;99206.66;;;6.86;61.31
49729;BME280;66333;49.798;10.968;2023-02-16T01:26:58;99198.13;;;6.84;61.17
49729;BME280;66333;49.798;10.968;2023-02-16T01:29:24;99186.00;;;6.83;61.28
49729;BME280;66333;49.798;10.968;2023-02-16T01:31:50;99187.72;;;6.84;61.34
49729;BME280;66333;49.798;10.968;2023-02-16T01:34:18;99187.78;;;6.82;61.33
49729;BME280;66333;49.798;10.968;2023-02-16T01:36:45;99193.94;;;6.81;61.13
49729;BME280;66333;49.798;10.968;2023-02-16T01:39:15;99196.66;;;6.79;61.15
49729;BME280;66333;49.798;10.968;2023-02-16T01:41:55;99193.22;;;6.79;61.36
49729;BME280;66333;49.798;10.968;2023-02-16T01:44:35;99186.22;;;6.79;61.13
49729;BME280;66333;49.798;10.968;2023-02-16T01:47:28;99179.38;;;6.78;61.39
49729;BME280;66333;49.798;10.968;2023-02-16T01:50:16;99190.72;;;6.77;61.49
49729;BME280;66333;49.798;10.968;2023-02-16T01:52:51;99179.59;;;6.75;61.46
49729;BME280;66333;49.798;10.968;2023-02-16T01:55:23;99170.06;;;6.74;61.45
49729;BME280;66333;49.798;10.968;2023-02-16T01:57:54;99167.47;;;6.74;61.46
49729;BME280;66333;49.798;10.968;2023-02-16T02:00:27;99168.22;;;6.76;61.26
49729;BME280;66333;49.798;10.968;2023-02-16T02:02:59;99165.09;;;6.71;61.29
49729;BME280;66333;49.798;10.968;2023-02-16T02:05:42;99162.47;;;6.71;61.65
49729;BME280;66333;49.798;10.968;2023-02-16T02:08:16;99155.63;;;6.70;61.32
49729;BME280;66333;49.798;10.968;2023-02-16T02:10:53;99160.81;;;6.70;61.45
49729;BME280;66333;49.798;10.968;2023-02-16T02:13:28;99155.72;;;6.69;61.34
49729;BME280;66333;49.798;10.968;2023-02-16T02:16:00;99157.50;;;6.68;61.66
49729;BME280;66333;49.798;10.968;2023-02-16T02:18:29;99147.09;;;6.68;61.58
49729;BME280;66333;49.798;10.968;2023-02-16T02:21:26;99152.28;;;6.68;61.53
49729;BME280;66333;49.798;10.968;2023-02-16T02:24:37;99147.09;;;6.68;61.53
49729;BME280;66333;49.798;10.968;2023-02-16T02:27:15;99149.81;;;6.67;61.58
49729;BME280;66333;49.798;10.968;2023-02-16T02:30:11;99145.63;;;6.64;61.39
49729;BME280;66333;49.798;10.968;2023-02-16T02:33:05;99145.50;;;6.66;61.36
49729;BME280;66333;49.798;10.968;2023-02-16T02:35:41;99147.50;;;6.62;61.61
49729;BME280;66333;49.798;10.968;2023-02-16T02:38:17;99134.47;;;6.62;61.67
49729;BME280;66333;49.798;10.968;2023-02-16T02:40:58;99132.09;;;6.59;61.40
49729;BME280;66333;49.798;10.968;2023-02-16T02:43:36;99132.09;;;6.59;61.43
49729;BME280;66333;49.798;10.968;2023-02-16T02:46:09;99130.44;;;6.58;61.60
49729;BME280;66333;49.798;10.968;2023-02-16T02:48:39;99135.53;;;6.60;61.70
49729;BME280;66333;49.798;10.968;2023-02-16T02:51:14;99133.75;;;6.60;61.66
49729;BME280;66333;49.798;10.968;2023-02-16T02:54:01;99133.03;;;6.58;61.49
49729;BME280;66333;49.798;10.968;2023-02-16T02:56:53;99127.84;;;6.58;61.59
49729;BME280;66333;49.798;10.968;2023-02-16T02:59:49;99128.75;;;6.57;61.43
49729;BME280;66333;49.798;10.968;2023-02-16T03:02:36;99128.97;;;6.54;61.55
49729;BME280;66333;49.798;10.968;2023-02-16T03:05:05;99128.13;;;6.54;61.65
49729;BME280;66333;49.798;10.968;2023-02-16T03:07:35;99126.47;;;6.53;61.44
49729;BME280;66333;49.798;10.968;2023-02-16T03:10:18;99116.88;;;6.53;61.39
49729;BME280;66333;49.798;10.968;2023-02-16T03:13:05;99121.25;;;6.53;61.25
49729;BME280;66333;49.798;10.968;2023-02-16T03:15:35;99115.41;;;6.49;61.64
49729;BME280;66333;49.798;10.968;2023-02-16T03:18:02;99113.69;;;6.49;61.61
49729;BME280;66333;49.798;10.968;2023-02-16T03:20:48;99120.63;;;6.49;61.75
49729;BME280;66333;49.798;10.968;2023-02-16T03:23:35;99117.09;;;6.50;61.59
49729;BME280;66333;49.798;10.968;2023-02-16T03:26:23;99121.38;;;6.51;61.63
49729;BME280;66333;49.798;10.968;2023-02-16T03:29:08;99124.16;;;6.48;61.66
49729;BME280;66333;49.798;10.968;2023-02-16T03:31:45;99120.72;;;6.47;61.44
49729;BME280;66333;49.798;10.968;2023-02-16T03:34:13;99120.84;;;6.46;61.43
49729;BME280;66333;49.798;10.968;2023-02-16T03:36:42;99119.19;;;6.45;61.60
49729;BME280;66333;49.798;10.968;2023-02-16T03:39:10;99122.50;;;6.47;61.61
49729;BME280;66333;49.798;10.968;2023-02-16T03:41:39;99115.63;;;6.46;61.47
49729;BME280;66333;49.798;10.968;2023-02-16T03:44:07;99110.44;;;6.46;61.63
49729;BME280;66333;49.798;10.968;2023-02-16T03:46:33;99111.50;;;6.43;61.40
49729;BME280;66333;49.798;10.968;2023-02-16T03:49:01;99121.06;;;6.43;61.46
49729;BME280;66333;49.798;10.968;2023-02-16T03:51:29;99125.53;;;6.41;61.48
49729;BME280;66333;49.798;10.968;2023-02-16T03:53:58;99116.88;;;6.40;61.54
49729;BME280;66333;49.798;10.968;2023-02-16T03:56:25;99117.72;;;6.41;61.52
49729;BME280;66333;49.798;10.968;2023-02-16T03:58:54;99120.31;;;6.41;61.56
49729;BME280;66333;49.798;10.968;2023-02-16T04:01:22;99133.34;;;6.41;61.66
49729;BME280;66333;49.798;10.968;2023-02-16T04:03:52;99135.31;;;6.37;61.43
49729;BME280;66333;49.798;10.968;2023-02-16T04:06:23;99142.09;;;6.40;61.63
49729;BME280;66333;49.798;10.968;2023-02-16T04:08:51;99138.75;;;6.38;61.65
49729;BME280;66333;49.798;10.968;2023-02-16T04:11:20;99129.28;;;6.37;61.75
49729;BME280;66333;49.798;10.968;2023-02-16T04:14:04;99128.56;;;6.35;61.49
49729;BME280;66333;49.798;10.968;2023-02-16T04:16:30;99121.69;;;6.34;61.36
49729;BME280;66333;49.798;10.968;2023-02-16T04:18:57;99122.53;;;6.34;61.51
49729;BME280;66333;49.798;10.968;2023-02-16T04:21:33;99118.97;;;6.35;61.49
49729;BME280;66333;49.798;10.968;2023-02-16T04:24:01;99125.97;;;6.35;61.54
49729;BME280;66333;49.798;10.968;2023-02-16T04:26:36;99128.75;;;6.32;61.42
49729;BME280;66333;49.798;10.968;2023-02-16T04:29:02;99126.16;;;6.32;61.45
49729;BME280;66333;49.798;10.968;2023-02-16T04:31:29;99128.75;;;6.32;61.57
49729;BME280;66333;49.798;10.968;2023-02-16T04:33:56;99130.44;;;6.33;61.51
49729;BME280;66333;49.798;10.968;2023-02-16T04:36:25;99136.47;;;6.33;61.44
49729;BME280;66333;49.798;10.968;2023-02-16T04:38:53;99127.09;;;6.31;61.31
49729;BME280;66333;49.798;10.968;2023-02-16T04:41:23;99128.13;;;6.28;61.61
49729;BME280;66333;49.798;10.968;2023-02-16T04:43:54;99127.19;;;6.29;61.67
49729;BME280;66333;49.798;10.968;2023-02-16T04:46:30;99125.44;;;6.30;61.47
49729;BME280;66333;49.798;10.968;2023-02-16T04:49:00;99126.47;;;6.27;61.61
49729;BME280;66333;49.798;10.968;2023-02-16T04:51:26;99116.91;;;6.28;61.86
49729;BME280;66333;49.798;10.968;2023-02-16T04:53:54;99114.41;;;6.26;61.77
49729;BME280;66333;49.798;10.968;2023-02-16T04:56:22;99117.13;;;6.25;61.42
49729;BME280;66333;49.798;10.968;2023-02-16T04:58:55;99117.13;;;6.25;61.61
49729;BME280;66333;49.798;10.968;2023-02-16T05:01:25;99126.69;;;6.24;61.68
49729;BME280;66333;49.798;10.968;2023-02-16T05:03:55;99123.22;;;6.23;61.47
49729;BME280;66333;49.798;10.968;2023-02-16T05:06:21;99131.03;;;6.23;61.64
49729;BME280;66333;49.798;10.968;2023-02-16T05:08:47;99129.38;;;6.22;61.71
49729;BME280;66333;49.798;10.968;2023-02-16T05:11:20;99132.91;;;6.21;61.34
49729;BME280;66333;49.798;10.968;2023-02-16T05:14:04;99135.53;;;6.21;61.47
49729;BME280;66333;49.798;10.968;2023-02-16T05:16:48;99141.66;;;6.20;61.35
49729;BME280;66333;49.798;10.968;2023-02-16T05:19:16;99137.41;;;6.19;61.32
49729;BME280;66333;49.798;10.968;2023-02-16T05:21:46;99138.34;;;6.18;61.42
49729;BME280;66333;49.798;10.968;2023-02-16T05:24:15;99146.88;;;6.20;61.39
49729;BME280;66333;49.798;10.968;2023-02-16T05:27:06;99145.22;;;6.19;61.82
49729;BME280;66333;49.798;10.968;2023-02-16T05:29:36;99152.28;;;6.17;61.33
49729;BME280;66333;49.798;10.968;2023-02-16T05:32:03;99149.69;;;6.17;61.50
49729;BME280;66333;49.798;10.968;2023-02-16T05:34:32;99145.44;;;6.16;61.39
49729;BME280;66333;49.798;10.968;2023-02-16T05:37:01;99143.53;;;6.18;61.57
49729;BME280;66333;49.798;10.968;2023-02-16T05:39:31;99139.38;;;6.16;61.37
49729;BME280;66333;49.798;10.968;2023-02-16T05:42:04;99144.59;;;6.16;61.54
49729;BME280;66333;49.798;10.968;2023-02-16T05:44:32;99139.47;;;6.14;61.66
49729;BME280;66333;49.798;10.968;2023-02-16T05:47:03;99136.03;;;6.14;61.53
49729;BME280;66333;49.798;10.968;2023-02-16T05:49:38;99147.28;;;6.14;61.60
49729;BME280;66333;49.798;10.968;2023-02-16T05:52:06;99140.41;;;6.13;61.46
49729;BME280;66333;49.798;10.968;2023-02-16T05:54:35;99141.25;;;6.14;61.63
49729;BME280;66333;49.798;10.968;2023-02-16T05:57:16;99148.03;;;6.16;61.61
49729;BME280;66333;49.798;10.968;2023-02-16T05:59:44;99140.41;;;6.13;61.40
49729;BME280;66333;49.798;10.968;2023-02-16T06:02:11;99143.00;;;6.13;61.41
49729;BME280;66333;49.798;10.968;2023-02-16T06:04:52;99139.56;;;6.13;61.55
49729;BME280;66333;49.798;10.968;2023-02-16T06:07:19;99137.81;;;6.13;61.32
49729;BME280;66333;49.798;10.968;2023-02-16T06:09:53;99136.16;;;6.12;61.31
49729;BME280;66333;49.798;10.968;2023-02-16T06:12:21;99144.88;;;6.11;61.44
49729;BME280;66333;49.798;10.968;2023-02-16T06:14:48;99144.78;;;6.13;61.38
49729;BME280;66333;49.798;10.968;2023-02-16T06:17:17;99161.22;;;6.13;61.64
49729;BME280;66333;49.798;10.968;2023-02-16T06:19:45;99157.25;;;5.95;59.66
49729;BME280;66333;49.798;10.968;2023-02-16T06:22:13;99158.06;;;5.96;59.02
49729;BME280;66333;49.798;10.968;2023-02-16T06:24:40;99159.84;;;5.95;60.53
49729;BME280;66333;49.798;10.968;2023-02-16T06:27:08;99165.59;;;6.00;60.15
49729;BME280;66333;49.798;10.968;2023-02-16T06:29:38;99167.44;;;5.98;60.18
49729;BME280;66333;49.798;10.968;2023-02-16T06:32:04;99167.25;;;6.01;60.52
49729;BME280;66333;49.798;10.968;2023-02-16T06:34:39;99164.66;;;6.01;60.40
49729;BME280;66333;49.798;10.968;2023-02-16T06:37:09;99152.47;;;6.02;60.47
49729;BME280;66333;49.798;10.968;2023-02-16T06:39:37;99162.06;;;6.01;60.35
49729;BME280;66333;49.798;10.968;2023-02-16T06:42:04;99172.47;;;6.01;60.61
49729;BME280;66333;49.798;10.968;2023-02-16T06:44:32;99170.78;;;6.00;60.51
49729;BME280;66333;49.798;10.968;2023-02-16T06:47:14;99169.97;;;6.00;60.49
49729;BME280;66333;49.798;10.968;2023-02-16T06:49:43;99180.38;;;6.00;60.68
49729;BME280;66333;49.798;10.968;2023-02-16T06:52:09;99185.56;;;6.00;60.75
49729;BME280;66333;49.798;10.968;2023-02-16T06:54:36;99184.72;;;5.99;60.57
49729;BME280;66333;49.798;10.968;2023-02-16T06:57:03;99190.13;;;5.96;60.69
49729;BME280;66333;49.798;10.968;2023-02-16T06:59:33;99185.97;;;5.93;60.81
49729;BME280;66333;49.798;10.968;2023-02-16T07:02:01;99185.84;;;5.95;60.83
49729;BME280;66333;49.798;10.968;2023-02-16T07:04:36;99190.13;;;5.96;60.50
49729;BME280;66333;49.798;10.968;2023-02-16T07:07:04;99173.06;;;5.92;61.05
49729;BME280;66333;49.798;10.968;2023-02-16T07:09:38;99172.84;;;5.95;60.56
49729;BME280;66333;49.798;10.968;2023-02-16T07:12:06;99176.59;;;5.91;60.66
49729;BME280;66333;49.798;10.968;2023-02-16T07:14:35;99171.19;;;5.94;60.47
49729;BME280;66333;49.798;10.968;2023-02-16T07:17:02;99173.06;;;5.92;60.99
49729;BME280;66333;49.798;10.968;2023-02-16T07:19:30;99174.00;;;5.91;60.80
49729;BME280;66333;49.798;10.968;2023-02-16T07:22:18;99172.38;;;5.88;60.82
49729;BME280;66333;49.798;10.968;2023-02-16T07:24:48;99176.63;;;5.89;60.80
49729;BME280;66333;49.798;10.968;2023-02-16T07:27:24;99175.78;;;5.90;60.58
49729;BME280;66333;49.798;10.968;2023-02-16T07:29:56;99180.09;;;5.90;60.82
49729;BME280;66333;49.798;10.968;2023-02-16T07:32:22;99176.63;;;5.89;60.42
49729;BME280;66333;49.798;10.968;2023-02-16T07:34:50;99180.09;;;5.90;60.49
49729;BME280;66333;49.798;10.968;2023-02-16T07:37:18;99176.75;;;5.88;60.44
49729;BME280;66333;49.798;10.968;2023-02-16T07:39:44;99176.75;;;5.88;60.50
49729;BME280;66333;49.798;10.968;2023-02-16T07:42:10;99169.69;;;5.90;60.71
49729;BME280;66333;49.798;10.968;2023-02-16T07:44:37;99172.47;;;5.87;60.63
49729;BME280;66333;49.798;10.968;2023-02-16T07:47:07;99171.66;;;5.86;60.53
49729;BME280;66333;49.798;10.968;2023-02-16T07:49:38;99175.09;;;5.87;60.26
49729;BME280;66333;49.798;10.968;2023-02-16T07:52:09;99185.47;;;5.87;60.65
49729;BME280;66333;49.798;10.968;2023-02-16T07:54:45;99172.59;;;5.85;60.70
49729;BME280;66333;49.798;10.968;2023-02-16T07:57:14;99170.94;;;5.84;60.57
49729;BME280;66333;49.798;10.968;2023-02-16T07:59:40;99175.28;;;5.84;60.74
49729;BME280;66333;49.798;10.968;2023-02-16T08:02:14;99168.31;;;5.84;60.98
49729;BME280;66333;49.798;10.968;2023-02-16T08:04:42;99170.09;;;5.84;60.72
49729;BME280;66333;49.798;10.968;2023-02-16T08:07:11;99175.28;;;5.84;60.76
49729;BME280;66333;49.798;10.968;2023-02-16T08:09:41;99175.28;;;5.84;60.56
49729;BME280;66333;49.798;10.968;2023-02-16T08:12:10;99182.38;;;5.82;60.60
49729;BME280;66333;49.798;10.968;2023-02-16T08:14:39;99178.84;;;5.83;60.66
49729;BME280;66333;49.798;10.968;2023-02-16T08:17:06;99180.50;;;5.84;60.48
49729;BME280;66333;49.798;10.968;2023-02-16T08:19:46;99182.88;;;5.87;60.45
49729;BME280;66333;49.798;10.968;2023-02-16T08:22:15;99183.81;;;5.86;60.33
49729;BME280;66333;49.798;10.968;2023-02-16T08:24:46;99181.22;;;5.86;60.74
49729;BME280;66333;49.798;10.968;2023-02-16T08:27:12;99178.84;;;5.83;60.84
49729;BME280;66333;49.798;10.968;2023-02-16T08:29:39;99177.78;;;5.85;60.47
49729;BME280;66333;49.798;10.968;2023-02-16T08:32:09;99186.63;;;5.83;60.87
49729;BME280;66333;49.798;10.968;2023-02-16T08:34:51;99184.03;;;5.83;60.72
49729;BME280;66333;49.798;10.968;2023-02-16T08:37:23;99185.69;;;5.84;60.87
49729;BME280;66333;49.798;10.968;2023-02-16T08:39:55;99189.22;;;5.83;60.72
49729;BME280;66333;49.798;10.968;2023-02-16T08:42:24;99180.69;;;5.81;60.80
49729;BME280;66333;49.798;10.968;2023-02-16T08:44:52;99184.75;;;5.85;60.75
49729;BME280;66333;49.798;10.968;2023-02-16T08:47:21;99185.69;;;5.84;61.14
49729;BME280;66333;49.798;10.968;2023-02-16T08:49:49;99196.09;;;5.84;60.64
49729;BME280;66333;49.798;10.968;2023-02-16T08:52:17;99189.22;;;5.83;60.81
49729;BME280;66333;49.798;10.968;2023-02-16T08:54:44;99206.28;;;5.87;60.90
49729;BME280;66333;49.798;10.968;2023-02-16T08:57:12;99202.97;;;5.85;61.10
49729;BME280;66333;49.798;10.968;2023-02-16T08:59:38;99200.38;;;5.85;60.78
49729;BME280;66333;49.798;10.968;2023-02-16T09:02:06;99216.69;;;5.87;61.15
49729;BME280;66333;49.798;10.968;2023-02-16T09:04:37;99207.13;;;5.87;60.64
49729;BME280;66333;49.798;10.968;2023-02-16T09:07:11;99212.44;;;5.86;60.80
49729;BME280;66333;49.798;10.968;2023-02-16T09:09:39;99204.63;;;5.86;60.81
49729;BME280;66333;49.798;10.968;2023-02-16T09:12:07;99217.75;;;5.84;61.30
49729;BME280;66333;49.798;10.968;2023-02-16T09:14:50;99222.00;;;5.85;60.84
49729;BME280;66333;49.798;10.968;2023-02-16T09:17:24;99223.56;;;5.88;60.96
49729;BME280;66333;49.798;10.968;2023-02-16T09:19:51;99215.03;;;5.86;60.81
49729;BME280;66333;49.798;10.968;2023-02-16T09:22:17;99216.69;;;5.87;61.10
49729;BME280;66333;49.798;10.968;2023-02-16T09:25:00;99217.38;;;5.90;60.86
49729;BME280;66333;49.798;10.968;2023-02-16T09:27:35;99214.69;;;5.92;60.88
49729;BME280;66333;49.798;10.968;2023-02-16T09:30:04;99216.34;;;5.93;60.88
49729;BME280;66333;49.798;10.968;2023-02-16T09:32:31;99216.34;;;5.93;60.92
49729;BME280;66333;49.798;10.968;2023-02-16T09:34:59;99222.59;;;5.90;60.80
49729;BME280;66333;49.798;10.968;2023-02-16T09:37:34;99225.91;;;5.92;60.84
49729;BME280;66333;49.798;10.968;2023-02-16T09:40:03;99223.31;;;5.92;61.01
49729;BME280;66333;49.798;10.968;2023-02-16T09:42:48;99226.53;;;5.96;61.05
49729;BME280;66333;49.798;10.968;2023-02-16T09:45:40;99222.16;;;5.97;60.65
49729;BME280;66333;49.798;10.968;2023-02-16T09:48:21;99214.47;;;5.95;61.03
49729;BME280;66333;49.798;10.968;2023-02-16T09:50:51;99204.06;;;5.95;60.83
49729;BME280;66333;49.798;10.968;2023-02-16T09:53:22;99213.44;;;5.98;60.99
49729;BME280;66333;49.798;10.968;2023-02-16T09:55:58;99212.59;;;5.97;60.80
49729;BME280;66333;49.798;10.968;2023-02-16T09:58:35;99207.38;;;5.97;60.94
49729;BME280;66333;49.798;10.968;2023-02-16T10:01:24;99213.25;;;6.01;60.98
49729;BME280;66333;49.798;10.968;2023-02-16T10:04:12;99214.06;;;6.01;60.76
49729;BME280;66333;49.798;10.968;2023-02-16T10:06:55;99208.88;;;6.01;61.10
49729;BME280;66333;49.798;10.968;2023-02-16T10:09:27;99208.03;;;6.01;60.95
49729;BME280;66333;49.798;10.968;2023-02-16T10:12:06;99209.69;;;6.02;61.11
49729;BME280;66333;49.798;10.968;2023-02-16T10:14:49;99207.81;;;6.04;60.99
49729;BME280;66333;49.798;10.968;2023-02-16T10:17:25;99209.50;;;6.05;60.84
49729;BME280;66333;49.798;10.968;2023-02-16T10:20:00;99211.09;;;6.07;60.84
49729;BME280;66333;49.798;10.968;2023-02-16T10:22:32;99213.69;;;6.07;61.11
49729;BME280;66333;49.798;10.968;2023-02-16T10:25:04;99199.75;;;6.08;61.00
49729;BME280;66333;49.798;10.968;2023-02-16T10:27:37;99198.06;;;6.07;61.11
49729;BME280;66333;49.798;10.968;2023-02-16T10:30:12;99200.56;;;6.09;60.95
49729;BME280;66333;49.798;10.968;2023-02-16T10:32:53;99193.59;;;6.09;60.94
49729;BME280;66333;49.798;10.968;2023-02-16T10:35:31;99203.06;;;6.10;61.16
49729;BME280;66333;49.798;10.968;2023-02-16T10:38:06;99202.03;;;6.13;61.22
49729;BME280;66333;49.798;10.968;2023-02-16T10:40:45;99197.66;;;6.13;61.16
49729;BME280;66333;49.798;10.968;2023-02-16T10:43:24;99192.44;;;6.13;61.23
49729;BME280;66333;49.798;10.968;2023-02-16T10:45:57;99187.25;;;6.13;61.14
49729;BME280;66333;49.798;10.968;2023-02-16T10:48:26;99182.69;;;6.17;61.10
49729;BME280;66333;49.798;10.968;2023-02-16T10:50:57;99186.84;;;6.19;61.10
49729;BME280;66333;49.798;10.968;2023-02-16T10:53:34;99172.16;;;6.18;60.83
49729;BME280;66333;49.798;10.968;2023-02-16T10:56:34;99165.31;;;6.17;61.27
49729;BME280;66333;49.798;10.968;2023-02-16T10:59:07;99159.16;;;6.18;61.41
49729;BME280;66333;49.798;10.968;2023-02-16T11:01:43;99161.53;;;6.21;60.97
49729;BME280;66333;49.798;10.968;2023-02-16T11:04:34;99157.06;;;6.23;61.00
49729;BME280;66333;49.798;10.968;2023-02-16T11:07:04;99146.66;;;6.23;61.07
49729;BME280;66333;49.798;10.968;2023-02-16T11:09:31;99157.06;;;6.23;61.42
49729;BME280;66333;49.798;10.968;2023-02-16T11:11:58;99154.47;;;6.23;61.21
49729;BME280;66333;49.798;10.968;2023-02-16T11:14:28;99144.81;;;6.26;61.18
49729;BME280;66333;49.798;10.968;2023-02-16T11:17:06;99143.31;;;6.21;61.54
49729;BME280;66333;49.798;10.968;2023-02-16T11:19:37;99137.09;;;6.37;61.09
49729;BME280;66333;49.798;10.968;2023-02-16T11:22:05;99139.47;;;6.40;60.91
49729;BME280;66333;49.798;10.968;2023-02-16T11:24:35;99138.97;;;6.35;61.48
49729;BME280;66333;49.798;10.968;2023-02-16T11:27:04;99139.91;;;6.34;61.34
49729;BME280;66333;49.798;10.968;2023-02-16T11:29:32;99144.38;;;6.32;61.88
49729;BME280;66333;49.798;10.968;2023-02-16T11:32:05;99141.78;;;6.32;61.57
49729;BME280;66333;49.798;10.968;2023-02-16T11:34:34;99152.19;;;6.32;61.71
49729;BME280;66333;49.798;10.968;2023-02-16T11:37:05;99135.84;;;6.30;61.66
49729;BME280;66333;49.798;10.968;2023-02-16T11:39:37;99138.34;;;6.31;61.59
49729;BME280;66333;49.798;10.968;2023-02-16T11:42:08;99130.63;;;6.30;61.66
49729;BME280;66333;49.798;10.968;2023-02-16T11:44:50;99132.28;;;6.31;61.99
49729;BME280;66333;49.798;10.968;2023-02-16T11:47:25;99120.03;;;6.33;61.63
49729;BME280;66333;49.798;10.968;2023-02-16T11:50:20;99113.88;;;6.34;61.55
49729;BME280;66333;49.798;10.968;2023-02-16T11:52:52;99116.50;;;6.34;61.96
49729;BME280;66333;49.798;10.968;2023-02-16T11:55:23;99101.81;;;6.33;61.81
49729;BME280;66333;49.798;10.968;2023-02-16T11:57:51;99102.53;;;6.35;61.68
49729;BME280;66333;49.798;10.968;2023-02-16T12:00:20;99118.97;;;6.35;61.68
49729;BME280;66333;49.798;10.968;2023-02-16T12:03:15;99101.25;;;6.40;61.78
49729;BME280;66333;49.798;10.968;2023-02-16T12:05:57;99107.31;;;6.41;61.73
49729;BME280;66333;49.798;10.968;2023-02-16T12:08:39;99109.72;;;6.44;61.63
49729;BME280;66333;49.798;10.968;2023-02-16T12:11:17;99095.03;;;6.43;61.74
49729;BME280;66333;49.798;10.968;2023-02-16T12:14:00;99095.88;;;6.43;61.57
49729;BME280;66333;49.798;10.968;2023-02-16T12:16:45;99103.56;;;6.45;61.56
49729;BME280;66333;49.798;10.968;2023-02-16T12:19:29;99101.69;;;6.47;61.77
49729;BME280;66333;49.798;10.968;2023-02-16T12:22:06;99093.88;;;6.47;61.62
49729;BME280;66333;49.798;10.968;2023-02-16T12:24:46;99100.75;;;6.48;61.53
49729;BME280;66333;49.798;10.968;2023-02-16T12:27:23;99091.06;;;6.50;61.68
49729;BME280;66333;49.798;10.968;2023-02-16T12:30:04;99093.47;;;6.53;61.51
49729;BME280;66333;49.798;10.968;2023-02-16T12:32:51;99077.72;;;6.55;61.42
49729;BME280;66333;49.798;10.968;2023-02-16T12:35:36;99088.97;;;6.55;61.44
49729;BME280;66333;49.798;10.968;2023-02-16T12:38:16;99080.22;;;6.56;61.44
49729;BME280;66333;49.798;10.968;2023-02-16T12:40:52;99085.22;;;6.59;61.43
49729;BME280;66333;49.798;10.968;2023-02-16T12:43:31;99078.97;;;6.62;61.72
49729;BME280;66333;49.798;10.968;2023-02-16T12:46:03;99075.53;;;6.61;61.64
49729;BME280;66333;49.798;10.968;2023-02-16T12:48:37;99080.50;;;6.64;61.62
49729;BME280;66333;49.798;10.968;2023-02-16T12:51:10;99077.19;;;6.62;61.71
49729;BME280;66333;49.798;10.968;2023-02-16T12:53:48;99078.63;;;6.66;61.71
49729;BME280;66333;49.798;10.968;2023-02-16T12:56:32;99070.81;;;6.66;61.59
49729;BME280;66333;49.798;10.968;2023-02-16T12:59:14;99056.88;;;6.67;61.65
49729;BME280;66333;49.798;10.968;2023-02-16T13:01:42;99052.38;;;6.69;61.65
49729;BME280;66333;49.798;10.968;2023-02-16T13:04:16;99054.06;;;6.70;61.53
49729;BME280;66333;49.798;10.968;2023-02-16T13:06:50;99049.56;;;6.72;61.51
49729;BME280;66333;49.798;10.968;2023-02-16T13:09:27;99051.22;;;6.73;61.59
49729;BME280;66333;49.798;10.968;2023-02-16T13:12:02;99057.19;;;6.75;61.37
49729;BME280;66333;49.798;10.968;2023-02-16T13:14:33;99046.84;;;6.74;61.77
49729;BME280;66333;49.798;10.968;2023-02-16T13:17:07;99038.09;;;6.75;61.68
49729;BME280;66333;49.798;10.968;2023-02-16T13:19:37;99036.22;;;6.77;61.73
49729;BME280;66333;49.798;10.968;2023-02-16T13:22:30;99043.94;;;6.78;61.75
49729;BME280;66333;49.798;10.968;2023-02-16T13:25:34;99038.72;;;6.78;61.51
49729;BME280;66333;49.798;10.968;2023-02-16T13:31:17;99033.28;;;6.82;61.79
49729;BME280;66333;49.798;10.968;2023-02-16T13:33:56;99025.47;;;6.82;61.42
49729;BME280;66333;49.798;10.968;2023-02-16T13:36:53;99026.22;;;6.84;61.59